sensor_id;sensor_type;location;lat;lon;timestamp;temperature;humidity
42085;DHT22;27746;52.228;20.890;2023-05-24T00:00:59;18.80;72.50
42085;DHT22;27746;52.228;20.890;2023-05-24T00:03:27;18.80;72.70
42085;DHT22;27746;52.228;20.890;2023-05-24T00:05:55;18.80;72.00
42085;DHT22;27746;52.228;20.890;2023-05-24T00:08:22;18.80;72.10
42085;DHT22;27746;52.228;20.890;2023-05-24T00:10:49;18.80;72.20
42085;DHT22;27746;52.228;20.890;2023-05-24T00:13:17;18.80;71.90
42085;DHT22;27746;52.228;20.890;2023-05-24T00:15:44;18.80;71.70
42085;DHT22;27746;52.228;20.890;2023-05-24T00:18:11;18.80;71.70
42085;DHT22;27746;52.228;20.890;2023-05-24T00:20:38;18.80;71.90
42085;DHT22;27746;52.228;20.890;2023-05-24T00:23:04;18.80;71.90
42085;DHT22;27746;52.228;20.890;2023-05-24T00:25:32;18.70;71.80
42085;DHT22;27746;52.228;20.890;2023-05-24T00:27:59;18.70;71.90
42085;DHT22;27746;52.228;20.890;2023-05-24T00:30:27;18.70;71.70
42085;DHT22;27746;52.228;20.890;2023-05-24T00:32:54;18.70;71.80
42085;DHT22;27746;52.228;20.890;2023-05-24T00:35:21;18.70;72.10
42085;DHT22;27746;52.228;20.890;2023-05-24T00:37:48;18.70;71.40
42085;DHT22;27746;52.228;20.890;2023-05-24T00:40:15;18.70;71.10
42085;DHT22;27746;52.228;20.890;2023-05-24T00:42:42;18.70;71.30
42085;DHT22;27746;52.228;20.890;2023-05-24T00:45:09;18.70;71.30
42085;DHT22;27746;52.228;20.890;2023-05-24T00:47:37;18.70;71.30
42085;DHT22;27746;52.228;20.890;2023-05-24T00:50:06;18.70;71.10
42085;DHT22;27746;52.228;20.890;2023-05-24T00:52:34;18.70;70.80
42085;DHT22;27746;52.228;20.890;2023-05-24T00:55:01;18.60;71.00
42085;DHT22;27746;52.228;20.890;2023-05-24T00:57:28;18.60;71.10
42085;DHT22;27746;52.228;20.890;2023-05-24T00:59:55;18.60;71.00
42085;DHT22;27746;52.228;20.890;2023-05-24T01:02:22;18.60;71.00
42085;DHT22;27746;52.228;20.890;2023-05-24T01:04:51;18.60;71.00
42085;DHT22;27746;52.228;20.890;2023-05-24T01:07:22;18.60;71.10
42085;DHT22;27746;52.228;20.890;2023-05-24T01:10:01;18.50;71.00
42085;DHT22;27746;52.228;20.890;2023-05-24T01:12:36;16.90;70.10
42085;DHT22;27746;52.228;20.890;2023-05-24T01:15:13;18.50;71.10
42085;DHT22;27746;52.228;20.890;2023-05-24T01:17:48;18.50;71.30
42085;DHT22;27746;52.228;20.890;2023-05-24T01:20:20;18.50;71.00
42085;DHT22;27746;52.228;20.890;2023-05-24T01:23:16;18.40;71.30
42085;DHT22;27746;52.228;20.890;2023-05-24T01:26:05;18.40;71.20
42085;DHT22;27746;52.228;20.890;2023-05-24T01:28:37;18.40;71.30
42085;DHT22;27746;52.228;20.890;2023-05-24T01:31:05;18.40;71.60
42085;DHT22;27746;52.228;20.890;2023-05-24T01:33:32;18.30;71.80
42085;DHT22;27746;52.228;20.890;2023-05-24T01:35:59;18.30;71.60
42085;DHT22;27746;52.228;20.890;2023-05-24T01:38:26;18.30;72.10
42085;DHT22;27746;52.228;20.890;2023-05-24T01:41:00;18.30;72.20
42085;DHT22;27746;52.228;20.890;2023-05-24T01:43:34;18.20;72.20
42085;DHT22;27746;52.228;20.890;2023-05-24T01:46:10;18.20;72.40
42085;DHT22;27746;52.228;20.890;2023-05-24T01:48:48;18.20;72.30
42085;DHT22;27746;52.228;20.890;2023-05-24T01:51:22;18.20;72.30
42085;DHT22;27746;52.228;20.890;2023-05-24T01:53:51;18.10;72.60
42085;DHT22;27746;52.228;20.890;2023-05-24T01:56:20;18.10;72.40
42085;DHT22;27746;52.228;20.890;2023-05-24T01:58:49;18.10;72.50
42085;DHT22;27746;52.228;20.890;2023-05-24T02:01:19;18.00;72.50
42085;DHT22;27746;52.228;20.890;2023-05-24T02:03:46;18.00;72.70
42085;DHT22;27746;52.228;20.890;2023-05-24T02:06:13;18.00;72.80
42085;DHT22;27746;52.228;20.890;2023-05-24T02:08:40;18.00;72.50
42085;DHT22;27746;52.228;20.890;2023-05-24T02:11:07;18.00;72.80
42085;DHT22;27746;52.228;20.890;2023-05-24T02:13:34;18.00;72.50
42085;DHT22;27746;52.228;20.890;2023-05-24T02:16:01;17.90;72.50
42085;DHT22;27746;52.228;20.890;2023-05-24T02:18:30;18.00;72.40
42085;DHT22;27746;52.228;20.890;2023-05-24T02:20:59;18.00;72.70
42085;DHT22;27746;52.228;20.890;2023-05-24T02:23:26;17.90;72.50
42085;DHT22;27746;52.228;20.890;2023-05-24T02:25:53;19.40;73.50
42085;DHT22;27746;52.228;20.890;2023-05-24T02:28:20;17.80;72.70
42085;DHT22;27746;52.228;20.890;2023-05-24T02:30:47;17.90;73.00
42085;DHT22;27746;52.228;20.890;2023-05-24T02:33:14;17.90;72.60
42085;DHT22;27746;52.228;20.890;2023-05-24T02:35:42;17.90;73.00
42085;DHT22;27746;52.228;20.890;2023-05-24T02:38:09;17.80;72.30
42085;DHT22;27746;52.228;20.890;2023-05-24T02:40:36;17.80;72.50
42085;DHT22;27746;52.228;20.890;2023-05-24T02:43:03;17.80;72.70
42085;DHT22;27746;52.228;20.890;2023-05-24T02:45:30;17.80;72.70
42085;DHT22;27746;52.228;20.890;2023-05-24T02:47:57;17.80;72.50
42085;DHT22;27746;52.228;20.890;2023-05-24T02:50:24;17.70;72.60
42085;DHT22;27746;52.228;20.890;2023-05-24T02:52:52;17.70;73.00
42085;DHT22;27746;52.228;20.890;2023-05-24T02:55:19;17.70;73.00
42085;DHT22;27746;52.228;20.890;2023-05-24T02:57:46;17.60;72.60
42085;DHT22;27746;52.228;20.890;2023-05-24T03:00:14;17.60;72.70
42085;DHT22;27746;52.228;20.890;2023-05-24T03:02:41;17.70;72.50
42085;DHT22;27746;52.228;20.890;2023-05-24T03:05:08;17.70;72.50
42085;DHT22;27746;52.228;20.890;2023-05-24T03:07:34;17.70;72.30
42085;DHT22;27746;52.228;20.890;2023-05-24T03:10:03;17.60;72.20
42085;DHT22;27746;52.228;20.890;2023-05-24T03:12:30;17.70;72.50
42085;DHT22;27746;52.228;20.890;2023-05-24T03:14:57;17.70;72.40
42085;DHT22;27746;52.228;20.890;2023-05-24T03:17:24;17.60;72.60
42085;DHT22;27746;52.228;20.890;2023-05-24T03:19:51;17.60;72.60
42085;DHT22;27746;52.228;20.890;2023-05-24T03:22:18;17.60;72.60
42085;DHT22;27746;52.228;20.890;2023-05-24T03:24:45;17.60;72.80
42085;DHT22;27746;52.228;20.890;2023-05-24T03:27:14;17.60;72.60
42085;DHT22;27746;52.228;20.890;2023-05-24T03:29:41;17.60;72.90
42085;DHT22;27746;52.228;20.890;2023-05-24T03:32:08;17.60;72.80
42085;DHT22;27746;52.228;20.890;2023-05-24T03:34:35;17.60;72.60
42085;DHT22;27746;52.228;20.890;2023-05-24T03:37:01;17.60;72.70
42085;DHT22;27746;52.228;20.890;2023-05-24T03:39:28;17.60;72.90
42085;DHT22;27746;52.228;20.890;2023-05-24T03:41:55;17.60;72.70
42085;DHT22;27746;52.228;20.890;2023-05-24T03:44:25;17.60;72.80
42085;DHT22;27746;52.228;20.890;2023-05-24T03:46:52;17.60;72.60
42085;DHT22;27746;52.228;20.890;2023-05-24T03:49:19;17.60;72.80
42085;DHT22;27746;52.228;20.890;2023-05-24T03:51:46;17.60;73.00
42085;DHT22;27746;52.228;20.890;2023-05-24T03:54:12;17.60;72.70
42085;DHT22;27746;52.228;20.890;2023-05-24T03:56:39;17.60;73.10
42085;DHT22;27746;52.228;20.890;2023-05-24T03:59:06;17.60;72.90
42085;DHT22;27746;52.228;20.890;2023-05-24T04:01:34;17.60;73.60
42085;DHT22;27746;52.228;20.890;2023-05-24T04:04:02;17.60;72.70
42085;DHT22;27746;52.228;20.890;2023-05-24T04:06:30;17.70;73.60
42085;DHT22;27746;52.228;20.890;2023-05-24T04:08:58;17.60;73.50
42085;DHT22;27746;52.228;20.890;2023-05-24T04:11:25;17.70;73.40
42085;DHT22;27746;52.228;20.890;2023-05-24T04:13:53;17.70;73.20
42085;DHT22;27746;52.228;20.890;2023-05-24T04:16:20;17.70;73.10
42085;DHT22;27746;52.228;20.890;2023-05-24T04:18:50;17.70;72.90
42085;DHT22;27746;52.228;20.890;2023-05-24T04:21:16;17.80;72.70
42085;DHT22;27746;52.228;20.890;2023-05-24T04:23:43;17.40;73.30
42085;DHT22;27746;52.228;20.890;2023-05-24T04:26:10;17.80;72.90
42085;DHT22;27746;52.228;20.890;2023-05-24T04:28:37;17.80;72.70
42085;DHT22;27746;52.228;20.890;2023-05-24T04:31:05;17.80;73.50
42085;DHT22;27746;52.228;20.890;2023-05-24T04:33:33;17.80;73.00
42085;DHT22;27746;52.228;20.890;2023-05-24T04:36:02;17.80;72.80
42085;DHT22;27746;52.228;20.890;2023-05-24T04:38:29;17.80;73.50
42085;DHT22;27746;52.228;20.890;2023-05-24T04:40:57;17.80;73.60
42085;DHT22;27746;52.228;20.890;2023-05-24T04:43:24;17.80;73.80
42085;DHT22;27746;52.228;20.890;2023-05-24T04:45:51;17.90;74.60
42085;DHT22;27746;52.228;20.890;2023-05-24T04:48:19;17.90;73.30
42085;DHT22;27746;52.228;20.890;2023-05-24T04:50:49;17.90;73.60
42085;DHT22;27746;52.228;20.890;2023-05-24T04:53:17;17.90;73.30
42085;DHT22;27746;52.228;20.890;2023-05-24T04:55:44;17.90;73.70
42085;DHT22;27746;52.228;20.890;2023-05-24T04:58:11;17.90;73.90
42085;DHT22;27746;52.228;20.890;2023-05-24T05:00:38;17.90;74.10
42085;DHT22;27746;52.228;20.890;2023-05-24T05:03:05;18.00;73.80
42085;DHT22;27746;52.228;20.890;2023-05-24T05:05:33;18.00;74.20
42085;DHT22;27746;52.228;20.890;2023-05-24T05:08:00;18.00;74.00
42085;DHT22;27746;52.228;20.890;2023-05-24T05:10:28;18.00;73.80
42085;DHT22;27746;52.228;20.890;2023-05-24T05:12:55;18.10;73.90
42085;DHT22;27746;52.228;20.890;2023-05-24T05:15:23;18.10;73.90
42085;DHT22;27746;52.228;20.890;2023-05-24T05:17:50;18.10;73.60
42085;DHT22;27746;52.228;20.890;2023-05-24T05:20:17;18.10;73.50
42085;DHT22;27746;52.228;20.890;2023-05-24T05:22:45;18.10;74.00
42085;DHT22;27746;52.228;20.890;2023-05-24T05:25:12;18.10;73.70
42085;DHT22;27746;52.228;20.890;2023-05-24T05:27:40;18.10;73.30
42085;DHT22;27746;52.228;20.890;2023-05-24T05:30:08;18.10;73.50
42085;DHT22;27746;52.228;20.890;2023-05-24T05:32:35;18.10;74.10
42085;DHT22;27746;52.228;20.890;2023-05-24T05:35:02;18.10;75.00
42085;DHT22;27746;52.228;20.890;2023-05-24T05:37:30;18.10;73.70
42085;DHT22;27746;52.228;20.890;2023-05-24T05:39:56;18.20;74.60
42085;DHT22;27746;52.228;20.890;2023-05-24T05:42:23;18.20;74.70
42085;DHT22;27746;52.228;20.890;2023-05-24T05:44:51;18.20;74.50
42085;DHT22;27746;52.228;20.890;2023-05-24T05:47:18;18.20;74.40
42085;DHT22;27746;52.228;20.890;2023-05-24T05:49:45;18.20;74.60
42085;DHT22;27746;52.228;20.890;2023-05-24T05:52:12;18.30;74.60
42085;DHT22;27746;52.228;20.890;2023-05-24T05:54:39;18.30;74.60
42085;DHT22;27746;52.228;20.890;2023-05-24T05:57:06;18.40;74.20
42085;DHT22;27746;52.228;20.890;2023-05-24T05:59:35;18.40;73.60
42085;DHT22;27746;52.228;20.890;2023-05-24T06:02:05;18.50;74.30
42085;DHT22;27746;52.228;20.890;2023-05-24T06:04:32;18.50;74.40
42085;DHT22;27746;52.228;20.890;2023-05-24T06:06:59;18.60;73.80
42085;DHT22;27746;52.228;20.890;2023-05-24T06:09:26;18.70;74.20
42085;DHT22;27746;52.228;20.890;2023-05-24T06:11:53;18.70;73.70
42085;DHT22;27746;52.228;20.890;2023-05-24T06:14:20;18.70;73.80
42085;DHT22;27746;52.228;20.890;2023-05-24T06:16:47;18.80;74.20
42085;DHT22;27746;52.228;20.890;2023-05-24T06:19:22;18.90;73.80
42085;DHT22;27746;52.228;20.890;2023-05-24T06:21:49;19.00;73.10
42085;DHT22;27746;52.228;20.890;2023-05-24T06:24:17;19.10;73.50
42085;DHT22;27746;52.228;20.890;2023-05-24T06:26:45;19.20;74.10
42085;DHT22;27746;52.228;20.890;2023-05-24T06:29:12;19.20;73.10
42085;DHT22;27746;52.228;20.890;2023-05-24T06:31:39;19.20;72.60
42085;DHT22;27746;52.228;20.890;2023-05-24T06:34:07;19.20;72.80
42085;DHT22;27746;52.228;20.890;2023-05-24T06:36:37;19.30;73.10
42085;DHT22;27746;52.228;20.890;2023-05-24T06:39:07;19.40;72.70
42085;DHT22;27746;52.228;20.890;2023-05-24T06:41:34;19.60;73.70
42085;DHT22;27746;52.228;20.890;2023-05-24T06:44:01;19.70;72.90
42085;DHT22;27746;52.228;20.890;2023-05-24T06:46:28;19.70;73.20
42085;DHT22;27746;52.228;20.890;2023-05-24T06:48:55;19.90;72.90
42085;DHT22;27746;52.228;20.890;2023-05-24T06:51:22;20.00;72.50
42085;DHT22;27746;52.228;20.890;2023-05-24T06:53:51;20.00;72.50
42085;DHT22;27746;52.228;20.890;2023-05-24T06:56:18;20.00;72.50
42085;DHT22;27746;52.228;20.890;2023-05-24T06:58:46;20.10;72.20
42085;DHT22;27746;52.228;20.890;2023-05-24T07:01:13;20.20;73.00
42085;DHT22;27746;52.228;20.890;2023-05-24T07:03:41;20.40;72.60
42085;DHT22;27746;52.228;20.890;2023-05-24T07:06:07;20.40;72.10
42085;DHT22;27746;52.228;20.890;2023-05-24T07:08:38;20.50;71.50
42085;DHT22;27746;52.228;20.890;2023-05-24T07:11:07;20.50;69.80
42085;DHT22;27746;52.228;20.890;2023-05-24T07:13:34;20.60;70.40
42085;DHT22;27746;52.228;20.890;2023-05-24T07:16:01;20.80;70.60
42085;DHT22;27746;52.228;20.890;2023-05-24T07:18:28;20.90;69.20
42085;DHT22;27746;52.228;20.890;2023-05-24T07:20:56;21.00;70.00
42085;DHT22;27746;52.228;20.890;2023-05-24T07:23:22;21.20;70.60
42085;DHT22;27746;52.228;20.890;2023-05-24T07:25:49;21.30;68.10
42085;DHT22;27746;52.228;20.890;2023-05-24T07:28:18;21.40;68.10
42085;DHT22;27746;52.228;20.890;2023-05-24T07:30:45;21.40;68.70
42085;DHT22;27746;52.228;20.890;2023-05-24T07:33:12;21.40;68.20
42085;DHT22;27746;52.228;20.890;2023-05-24T07:35:39;21.50;68.80
42085;DHT22;27746;52.228;20.890;2023-05-24T07:38:06;21.60;69.40
42085;DHT22;27746;52.228;20.890;2023-05-24T07:40:33;21.70;68.60
42085;DHT22;27746;52.228;20.890;2023-05-24T07:43:00;21.70;68.20
42085;DHT22;27746;52.228;20.890;2023-05-24T07:45:28;21.60;68.60
42085;DHT22;27746;52.228;20.890;2023-05-24T07:47:55;21.60;69.10
42085;DHT22;27746;52.228;20.890;2023-05-24T07:50:22;21.50;68.40
42085;DHT22;27746;52.228;20.890;2023-05-24T07:52:49;21.50;69.20
42085;DHT22;27746;52.228;20.890;2023-05-24T07:55:16;21.40;70.00
42085;DHT22;27746;52.228;20.890;2023-05-24T07:57:44;21.50;70.10
42085;DHT22;27746;52.228;20.890;2023-05-24T08:00:11;21.70;69.40
42085;DHT22;27746;52.228;20.890;2023-05-24T08:02:42;21.90;70.50
42085;DHT22;27746;52.228;20.890;2023-05-24T08:05:11;22.00;69.20
42085;DHT22;27746;52.228;20.890;2023-05-24T08:07:38;22.10;69.40
42085;DHT22;27746;52.228;20.890;2023-05-24T08:10:07;22.20;69.10
42085;DHT22;27746;52.228;20.890;2023-05-24T08:12:35;22.40;69.00
42085;DHT22;27746;52.228;20.890;2023-05-24T08:15:02;22.60;68.40
42085;DHT22;27746;52.228;20.890;2023-05-24T08:17:30;22.80;68.40
42085;DHT22;27746;52.228;20.890;2023-05-24T08:19:58;23.00;67.40
42085;DHT22;27746;52.228;20.890;2023-05-24T08:22:25;23.10;66.30
42085;DHT22;27746;52.228;20.890;2023-05-24T08:24:52;23.10;67.30
42085;DHT22;27746;52.228;20.890;2023-05-24T08:27:19;23.10;67.90
42085;DHT22;27746;52.228;20.890;2023-05-24T08:29:47;23.20;66.40
42085;DHT22;27746;52.228;20.890;2023-05-24T08:32:13;23.20;67.60
42085;DHT22;27746;52.228;20.890;2023-05-24T08:34:40;23.20;66.90
42085;DHT22;27746;52.228;20.890;2023-05-24T08:37:11;23.20;67.40
42085;DHT22;27746;52.228;20.890;2023-05-24T08:39:39;23.30;67.30
42085;DHT22;27746;52.228;20.890;2023-05-24T08:42:06;23.40;67.20
42085;DHT22;27746;52.228;20.890;2023-05-24T08:44:40;23.40;66.80
42085;DHT22;27746;52.228;20.890;2023-05-24T08:47:07;23.50;67.20
42085;DHT22;27746;52.228;20.890;2023-05-24T08:49:35;23.70;68.20
42085;DHT22;27746;52.228;20.890;2023-05-24T08:52:03;23.70;67.50
42085;DHT22;27746;52.228;20.890;2023-05-24T08:54:33;23.80;67.50
42085;DHT22;27746;52.228;20.890;2023-05-24T08:57:01;23.80;67.60
42085;DHT22;27746;52.228;20.890;2023-05-24T08:59:28;23.70;66.20
42085;DHT22;27746;52.228;20.890;2023-05-24T09:01:56;23.70;66.80
42085;DHT22;27746;52.228;20.890;2023-05-24T09:04:23;23.60;67.60
42085;DHT22;27746;52.228;20.890;2023-05-24T09:06:53;23.50;66.70
42085;DHT22;27746;52.228;20.890;2023-05-24T09:09:21;23.40;67.10
42085;DHT22;27746;52.228;20.890;2023-05-24T09:11:56;23.30;67.30
42085;DHT22;27746;52.228;20.890;2023-05-24T09:14:26;23.30;67.60
42085;DHT22;27746;52.228;20.890;2023-05-24T09:16:53;23.10;68.10
42085;DHT22;27746;52.228;20.890;2023-05-24T09:19:20;23.00;68.40
42085;DHT22;27746;52.228;20.890;2023-05-24T09:21:48;23.00;68.30
42085;DHT22;27746;52.228;20.890;2023-05-24T09:24:15;23.00;68.00
42085;DHT22;27746;52.228;20.890;2023-05-24T09:26:42;23.00;68.30
42085;DHT22;27746;52.228;20.890;2023-05-24T09:29:10;23.00;68.60
42085;DHT22;27746;52.228;20.890;2023-05-24T09:31:38;23.10;69.10
42085;DHT22;27746;52.228;20.890;2023-05-24T09:34:09;23.00;67.70
42085;DHT22;27746;52.228;20.890;2023-05-24T09:36:39;23.10;68.20
42085;DHT22;27746;52.228;20.890;2023-05-24T09:39:08;23.10;67.60
42085;DHT22;27746;52.228;20.890;2023-05-24T09:41:36;23.10;67.90
42085;DHT22;27746;52.228;20.890;2023-05-24T09:44:04;23.20;68.30
42085;DHT22;27746;52.228;20.890;2023-05-24T09:46:36;23.20;69.00
42085;DHT22;27746;52.228;20.890;2023-05-24T09:49:03;23.20;69.70
42085;DHT22;27746;52.228;20.890;2023-05-24T09:51:33;23.20;69.10
42085;DHT22;27746;52.228;20.890;2023-05-24T09:54:02;23.20;69.50
42085;DHT22;27746;52.228;20.890;2023-05-24T09:56:31;23.20;70.10
42085;DHT22;27746;52.228;20.890;2023-05-24T09:59:04;23.20;70.70
42085;DHT22;27746;52.228;20.890;2023-05-24T10:01:32;23.20;71.80
42085;DHT22;27746;52.228;20.890;2023-05-24T10:04:02;23.30;71.80
42085;DHT22;27746;52.228;20.890;2023-05-24T10:06:33;23.40;71.00
42085;DHT22;27746;52.228;20.890;2023-05-24T10:09:02;23.40;71.20
42085;DHT22;27746;52.228;20.890;2023-05-24T10:11:31;23.60;72.20
42085;DHT22;27746;52.228;20.890;2023-05-24T10:13:58;23.70;70.70
42085;DHT22;27746;52.228;20.890;2023-05-24T10:16:25;23.80;70.80
42085;DHT22;27746;52.228;20.890;2023-05-24T10:18:52;25.50;71.30
42085;DHT22;27746;52.228;20.890;2023-05-24T10:21:22;23.90;70.30
42085;DHT22;27746;52.228;20.890;2023-05-24T10:23:53;23.90;70.50
42085;DHT22;27746;52.228;20.890;2023-05-24T10:26:23;24.00;68.80
42085;DHT22;27746;52.228;20.890;2023-05-24T10:28:54;24.00;68.20
42085;DHT22;27746;52.228;20.890;2023-05-24T10:31:26;24.00;68.60
42085;DHT22;27746;52.228;20.890;2023-05-24T10:33:56;24.10;68.80
42085;DHT22;27746;52.228;20.890;2023-05-24T10:36:25;24.20;69.00
42085;DHT22;27746;52.228;20.890;2023-05-24T10:38:53;24.30;69.60
42085;DHT22;27746;52.228;20.890;2023-05-24T10:41:24;24.40;68.80
42085;DHT22;27746;52.228;20.890;2023-05-24T10:43:52;24.50;68.20
42085;DHT22;27746;52.228;20.890;2023-05-24T10:46:19;24.60;68.10
42085;DHT22;27746;52.228;20.890;2023-05-24T10:48:58;24.70;68.60
42085;DHT22;27746;52.228;20.890;2023-05-24T10:51:38;24.70;67.80
42085;DHT22;27746;52.228;20.890;2023-05-24T10:54:16;24.80;67.50
42085;DHT22;27746;52.228;20.890;2023-05-24T10:56:45;24.90;67.20
42085;DHT22;27746;52.228;20.890;2023-05-24T10:59:23;24.80;66.90
42085;DHT22;27746;52.228;20.890;2023-05-24T11:01:54;24.90;67.80
42085;DHT22;27746;52.228;20.890;2023-05-24T11:04:22;24.90;67.50
42085;DHT22;27746;52.228;20.890;2023-05-24T11:06:55;25.00;67.00
42085;DHT22;27746;52.228;20.890;2023-05-24T11:09:23;25.10;66.10
42085;DHT22;27746;52.228;20.890;2023-05-24T11:11:54;25.30;66.30
42085;DHT22;27746;52.228;20.890;2023-05-24T11:14:26;25.50;66.30
42085;DHT22;27746;52.228;20.890;2023-05-24T11:16:54;25.50;65.50
42085;DHT22;27746;52.228;20.890;2023-05-24T11:19:23;25.60;66.40
42085;DHT22;27746;52.228;20.890;2023-05-24T11:21:52;25.70;66.00
42085;DHT22;27746;52.228;20.890;2023-05-24T11:24:19;25.70;66.70
42085;DHT22;27746;52.228;20.890;2023-05-24T11:26:49;25.80;66.70
42085;DHT22;27746;52.228;20.890;2023-05-24T11:29:16;25.80;66.70
42085;DHT22;27746;52.228;20.890;2023-05-24T11:31:47;25.80;66.90
42085;DHT22;27746;52.228;20.890;2023-05-24T11:34:15;25.80;66.40
42085;DHT22;27746;52.228;20.890;2023-05-24T11:36:42;25.90;66.70
42085;DHT22;27746;52.228;20.890;2023-05-24T11:39:11;26.00;68.50
42085;DHT22;27746;52.228;20.890;2023-05-24T11:41:39;26.20;67.60
42085;DHT22;27746;52.228;20.890;2023-05-24T11:44:07;26.30;67.50
42085;DHT22;27746;52.228;20.890;2023-05-24T11:46:34;26.40;66.60
42085;DHT22;27746;52.228;20.890;2023-05-24T11:49:01;26.50;66.90
42085;DHT22;27746;52.228;20.890;2023-05-24T11:51:29;26.70;64.70
42085;DHT22;27746;52.228;20.890;2023-05-24T11:53:57;26.80;64.10
42085;DHT22;27746;52.228;20.890;2023-05-24T11:56:26;26.80;64.40
42085;DHT22;27746;52.228;20.890;2023-05-24T11:59:02;26.80;64.70
42085;DHT22;27746;52.228;20.890;2023-05-24T12:01:30;26.90;65.00
42085;DHT22;27746;52.228;20.890;2023-05-24T12:03:57;27.00;64.40
42085;DHT22;27746;52.228;20.890;2023-05-24T12:06:33;27.00;62.70
42085;DHT22;27746;52.228;20.890;2023-05-24T12:09:00;26.90;63.40
42085;DHT22;27746;52.228;20.890;2023-05-24T12:11:31;27.00;63.50
42085;DHT22;27746;52.228;20.890;2023-05-24T12:13:58;24.40;61.70
42085;DHT22;27746;52.228;20.890;2023-05-24T12:16:27;27.30;64.40
42085;DHT22;27746;52.228;20.890;2023-05-24T12:18:56;27.50;63.80
42085;DHT22;27746;52.228;20.890;2023-05-24T12:21:24;27.70;63.70
42085;DHT22;27746;52.228;20.890;2023-05-24T12:23:51;27.90;64.30
42085;DHT22;27746;52.228;20.890;2023-05-24T12:26:18;28.00;64.40
42085;DHT22;27746;52.228;20.890;2023-05-24T12:28:52;28.10;63.70
42085;DHT22;27746;52.228;20.890;2023-05-24T12:31:20;28.20;64.00
42085;DHT22;27746;52.228;20.890;2023-05-24T12:33:47;28.30;63.60
42085;DHT22;27746;52.228;20.890;2023-05-24T12:36:14;28.40;63.70
42085;DHT22;27746;52.228;20.890;2023-05-24T12:38:42;28.60;63.20
42085;DHT22;27746;52.228;20.890;2023-05-24T12:41:09;28.80;63.00
42085;DHT22;27746;52.228;20.890;2023-05-24T12:43:38;28.80;61.30
42085;DHT22;27746;52.228;20.890;2023-05-24T12:46:07;28.80;61.10
42085;DHT22;27746;52.228;20.890;2023-05-24T12:48:34;28.90;61.50
42085;DHT22;27746;52.228;20.890;2023-05-24T12:51:01;28.80;62.10
42085;DHT22;27746;52.228;20.890;2023-05-24T12:53:28;28.80;62.70
42085;DHT22;27746;52.228;20.890;2023-05-24T12:55:55;28.70;62.20
42085;DHT22;27746;52.228;20.890;2023-05-24T12:58:22;28.80;62.80
42085;DHT22;27746;52.228;20.890;2023-05-24T13:00:49;28.80;61.00
42085;DHT22;27746;52.228;20.890;2023-05-24T13:03:18;28.70;61.70
42085;DHT22;27746;52.228;20.890;2023-05-24T13:05:45;28.60;62.50
42085;DHT22;27746;52.228;20.890;2023-05-24T13:08:12;28.50;62.50
42085;DHT22;27746;52.228;20.890;2023-05-24T13:10:39;28.40;62.30
42085;DHT22;27746;52.228;20.890;2023-05-24T13:13:06;28.20;62.90
42085;DHT22;27746;52.228;20.890;2023-05-24T13:15:33;28.10;63.40
42085;DHT22;27746;52.228;20.890;2023-05-24T13:18:00;28.20;63.80
42085;DHT22;27746;52.228;20.890;2023-05-24T13:20:29;28.10;64.40
42085;DHT22;27746;52.228;20.890;2023-05-24T13:22:55;28.20;65.50
42085;DHT22;27746;52.228;20.890;2023-05-24T13:25:22;28.30;64.60
42085;DHT22;27746;52.228;20.890;2023-05-24T13:27:49;28.40;64.60
42085;DHT22;27746;52.228;20.890;2023-05-24T13:30:16;28.50;64.30
42085;DHT22;27746;52.228;20.890;2023-05-24T13:32:43;28.60;64.20
42085;DHT22;27746;52.228;20.890;2023-05-24T13:35:10;28.80;63.50
42085;DHT22;27746;52.228;20.890;2023-05-24T13:37:38;28.80;63.90
42085;DHT22;27746;52.228;20.890;2023-05-24T13:40:06;28.70;63.50
42085;DHT22;27746;52.228;20.890;2023-05-24T13:42:33;28.70;63.60
42085;DHT22;27746;52.228;20.890;2023-05-24T13:45:00;28.60;63.60
42085;DHT22;27746;52.228;20.890;2023-05-24T13:47:28;28.50;63.50
42085;DHT22;27746;52.228;20.890;2023-05-24T13:49:55;28.60;64.00
42085;DHT22;27746;52.228;20.890;2023-05-24T13:52:22;28.60;64.90
42085;DHT22;27746;52.228;20.890;2023-05-24T13:54:50;28.60;65.40
42085;DHT22;27746;52.228;20.890;2023-05-24T13:57:17;28.50;65.70
42085;DHT22;27746;52.228;20.890;2023-05-24T13:59:44;28.40;65.70
42085;DHT22;27746;52.228;20.890;2023-05-24T14:02:11;28.40;66.20
42085;DHT22;27746;52.228;20.890;2023-05-24T14:04:38;28.40;64.70
42085;DHT22;27746;52.228;20.890;2023-05-24T14:07:05;28.40;65.20
42085;DHT22;27746;52.228;20.890;2023-05-24T14:09:33;28.20;64.80
42085;DHT22;27746;52.228;20.890;2023-05-24T14:12:03;28.20;65.40
42085;DHT22;27746;52.228;20.890;2023-05-24T14:14:32;28.20;65.30
42085;DHT22;27746;52.228;20.890;2023-05-24T14:16:59;28.20;66.00
42085;DHT22;27746;52.228;20.890;2023-05-24T14:19:28;27.70;67.60
42085;DHT22;27746;52.228;20.890;2023-05-24T14:21:55;27.10;67.40
42085;DHT22;27746;52.228;20.890;2023-05-24T14:24:24;26.70;67.80
42085;DHT22;27746;52.228;20.890;2023-05-24T14:26:51;26.30;70.50
42085;DHT22;27746;52.228;20.890;2023-05-24T14:29:19;26.00;71.00
42085;DHT22;27746;52.228;20.890;2023-05-24T14:31:46;25.70;71.90
42085;DHT22;27746;52.228;20.890;2023-05-24T14:34:13;25.40;69.70
42085;DHT22;27746;52.228;20.890;2023-05-24T14:36:41;25.20;70.20
42085;DHT22;27746;52.228;20.890;2023-05-24T14:39:07;25.20;70.50
42085;DHT22;27746;52.228;20.890;2023-05-24T14:41:34;25.10;69.50
42085;DHT22;27746;52.228;20.890;2023-05-24T14:44:01;25.00;70.00
42085;DHT22;27746;52.228;20.890;2023-05-24T14:46:29;25.00;68.70
42085;DHT22;27746;52.228;20.890;2023-05-24T14:48:56;24.90;68.90
42085;DHT22;27746;52.228;20.890;2023-05-24T14:51:23;24.90;68.20
42085;DHT22;27746;52.228;20.890;2023-05-24T14:53:50;24.90;67.70
42085;DHT22;27746;52.228;20.890;2023-05-24T14:56:17;24.90;67.10
42085;DHT22;27746;52.228;20.890;2023-05-24T14:58:44;24.80;67.70
42085;DHT22;27746;52.228;20.890;2023-05-24T15:01:11;24.70;70.20
42085;DHT22;27746;52.228;20.890;2023-05-24T15:03:39;24.60;69.70
42085;DHT22;27746;52.228;20.890;2023-05-24T15:06:09;24.50;71.20
42085;DHT22;27746;52.228;20.890;2023-05-24T15:08:36;24.40;70.70
42085;DHT22;27746;52.228;20.890;2023-05-24T15:11:03;24.30;70.40
42085;DHT22;27746;52.228;20.890;2023-05-24T15:13:30;24.20;71.20
42085;DHT22;27746;52.228;20.890;2023-05-24T15:15:57;24.20;72.10
42085;DHT22;27746;52.228;20.890;2023-05-24T15:18:25;24.20;72.50
42085;DHT22;27746;52.228;20.890;2023-05-24T15:20:54;24.20;71.50